sensor_id;sensor_type;location;lat;lon;timestamp;P1;durP1;ratioP1;P2;durP2;ratioP2
77248;SDS011;66280;45.124;20.718;2023-05-07T00:07:43;5.32;;;3.90;;
77248;SDS011;66280;45.124;20.718;2023-05-07T00:17:44;4.20;;;3.57;;
77248;SDS011;66280;45.124;20.718;2023-05-07T00:27:45;5.87;;;4.13;;
77248;SDS011;66280;45.124;20.718;2023-05-07T00:37:46;8.67;;;4.57;;
77248;SDS011;66280;45.124;20.718;2023-05-07T00:47:47;8.73;;;4.67;;
77248;SDS011;66280;45.124;20.718;2023-05-07T00:57:47;6.13;;;4.28;;
77248;SDS011;66280;45.124;20.718;2023-05-07T01:07:50;6.13;;;4.70;;
77248;SDS011;66280;45.124;20.718;2023-05-07T01:17:52;7.43;;;5.77;;
77248;SDS011;66280;45.124;20.718;2023-05-07T01:28:01;7.30;;;4.63;;
77248;SDS011;66280;45.124;20.718;2023-05-07T01:38:05;6.30;;;3.50;;
77248;SDS011;66280;45.124;20.718;2023-05-07T01:48:06;7.45;;;4.82;;
77248;SDS011;66280;45.124;20.718;2023-05-07T01:58:07;6.17;;;4.30;;
77248;SDS011;66280;45.124;20.718;2023-05-07T02:08:08;8.10;;;4.53;;
77248;SDS011;66280;45.124;20.718;2023-05-07T02:18:10;6.68;;;4.45;;
77248;SDS011;66280;45.124;20.718;2023-05-07T02:28:12;7.07;;;4.17;;
77248;SDS011;66280;45.124;20.718;2023-05-07T02:38:25;7.80;;;5.43;;
77248;SDS011;66280;45.124;20.718;2023-05-07T02:48:26;7.03;;;4.30;;
77248;SDS011;66280;45.124;20.718;2023-05-07T02:58:27;9.60;;;5.10;;
77248;SDS011;66280;45.124;20.718;2023-05-07T03:08:28;6.63;;;5.23;;
77248;SDS011;66280;45.124;20.718;2023-05-07T03:18:29;10.32;;;5.05;;
77248;SDS011;66280;45.124;20.718;2023-05-07T03:28:30;6.37;;;4.13;;
77248;SDS011;66280;45.124;20.718;2023-05-07T03:38:35;6.87;;;4.27;;
77248;SDS011;66280;45.124;20.718;2023-05-07T03:48:36;12.48;;;5.03;;
77248;SDS011;66280;45.124;20.718;2023-05-07T03:58:37;6.30;;;4.30;;
77248;SDS011;66280;45.124;20.718;2023-05-07T04:08:42;6.10;;;4.03;;
77248;SDS011;66280;45.124;20.718;2023-05-07T04:18:43;5.93;;;4.27;;
77248;SDS011;66280;45.124;20.718;2023-05-07T04:28:44;5.37;;;4.00;;
77248;SDS011;66280;45.124;20.718;2023-05-07T04:38:45;6.03;;;4.03;;
77248;SDS011;66280;45.124;20.718;2023-05-07T04:48:47;5.88;;;4.63;;
77248;SDS011;66280;45.124;20.718;2023-05-07T04:58:48;4.37;;;3.77;;
77248;SDS011;66280;45.124;20.718;2023-05-07T05:08:52;5.13;;;4.20;;
77248;SDS011;66280;45.124;20.718;2023-05-07T05:18:53;6.90;;;3.07;;
77248;SDS011;66280;45.124;20.718;2023-05-07T05:28:53;7.37;;;3.70;;
77248;SDS011;66280;45.124;20.718;2023-05-07T05:38:57;5.75;;;4.15;;
77248;SDS011;66280;45.124;20.718;2023-05-07T05:48:58;3.97;;;3.57;;
77248;SDS011;66280;45.124;20.718;2023-05-07T05:58:58;4.60;;;3.17;;
77248;SDS011;66280;45.124;20.718;2023-05-07T06:09:00;6.63;;;3.97;;
77248;SDS011;66280;45.124;20.718;2023-05-07T06:19:08;5.63;;;3.75;;
77248;SDS011;66280;45.124;20.718;2023-05-07T06:29:09;4.17;;;2.93;;
77248;SDS011;66280;45.124;20.718;2023-05-07T06:39:13;6.90;;;3.30;;
77248;SDS011;66280;45.124;20.718;2023-05-07T06:49:14;6.55;;;3.78;;
77248;SDS011;66280;45.124;20.718;2023-05-07T06:59:15;7.03;;;3.93;;
77248;SDS011;66280;45.124;20.718;2023-05-07T07:09:17;3.97;;;3.63;;
77248;SDS011;66280;45.124;20.718;2023-05-07T07:19:18;4.33;;;3.60;;
77248;SDS011;66280;45.124;20.718;2023-05-07T07:29:21;4.97;;;3.53;;
77248;SDS011;66280;45.124;20.718;2023-05-07T07:39:23;7.60;;;4.10;;
77248;SDS011;66280;45.124;20.718;2023-05-07T07:49:28;5.78;;;3.97;;
77248;SDS011;66280;45.124;20.718;2023-05-07T07:59:30;5.90;;;4.60;;
77248;SDS011;66280;45.124;20.718;2023-05-07T08:09:31;5.47;;;5.03;;
77248;SDS011;66280;45.124;20.718;2023-05-07T08:19:34;5.67;;;4.20;;
77248;SDS011;66280;45.124;20.718;2023-05-07T08:29:36;7.23;;;5.07;;
77248;SDS011;66280;45.124;20.718;2023-05-07T08:39:37;6.40;;;5.55;;
77248;SDS011;66280;45.124;20.718;2023-05-07T08:49:43;7.57;;;6.53;;
77248;SDS011;66280;45.124;20.718;2023-05-07T08:59:44;8.30;;;5.80;;
77248;SDS011;66280;45.124;20.718;2023-05-07T09:09:46;6.33;;;4.83;;
77248;SDS011;66280;45.124;20.718;2023-05-07T09:19:48;5.13;;;4.67;;
77248;SDS011;66280;45.124;20.718;2023-05-07T09:29:50;5.30;;;4.80;;
77248;SDS011;66280;45.124;20.718;2023-05-07T09:39:51;6.73;;;6.03;;
77248;SDS011;66280;45.124;20.718;2023-05-07T09:49:55;6.93;;;5.87;;
77248;SDS011;66280;45.124;20.718;2023-05-07T09:59:58;6.88;;;6.28;;
77248;SDS011;66280;45.124;20.718;2023-05-07T10:10:00;7.03;;;4.97;;
77248;SDS011;66280;45.124;20.718;2023-05-07T10:20:08;5.33;;;4.23;;
77248;SDS011;66280;45.124;20.718;2023-05-07T10:30:22;5.93;;;5.43;;
77248;SDS011;66280;45.124;20.718;2023-05-07T10:40:32;4.20;;;3.90;;
77248;SDS011;66280;45.124;20.718;2023-05-07T10:50:37;7.22;;;5.07;;
77248;SDS011;66280;45.124;20.718;2023-05-07T11:00:41;6.80;;;6.30;;
77248;SDS011;66280;45.124;20.718;2023-05-07T11:10:50;6.63;;;5.57;;
77248;SDS011;66280;45.124;20.718;2023-05-07T11:21:06;5.18;;;4.78;;
77248;SDS011;66280;45.124;20.718;2023-05-07T11:31:17;5.60;;;4.20;;
77248;SDS011;66280;45.124;20.718;2023-05-07T11:41:22;4.57;;;4.20;;
77248;SDS011;66280;45.124;20.718;2023-05-07T11:51:23;4.37;;;3.97;;
77248;SDS011;66280;45.124;20.718;2023-05-07T12:01:25;4.97;;;4.27;;
77248;SDS011;66280;45.124;20.718;2023-05-07T12:11:25;5.03;;;4.63;;
77248;SDS011;66280;45.124;20.718;2023-05-07T12:21:26;4.47;;;4.10;;
77248;SDS011;66280;45.124;20.718;2023-05-07T12:31:27;6.53;;;5.32;;
77248;SDS011;66280;45.124;20.718;2023-05-07T12:41:28;4.47;;;4.07;;
77248;SDS011;66280;45.124;20.718;2023-05-07T12:51:29;4.93;;;4.60;;
77248;SDS011;66280;45.124;20.718;2023-05-07T13:01:29;6.37;;;3.83;;
77248;SDS011;66280;45.124;20.718;2023-05-07T13:11:31;4.33;;;3.93;;
77248;SDS011;66280;45.124;20.718;2023-05-07T13:21:32;4.63;;;4.30;;
77248;SDS011;66280;45.124;20.718;2023-05-07T13:31:34;5.05;;;4.32;;
77248;SDS011;66280;45.124;20.718;2023-05-07T13:41:34;6.07;;;5.57;;
77248;SDS011;66280;45.124;20.718;2023-05-07T13:51:35;5.60;;;5.10;;
77248;SDS011;66280;45.124;20.718;2023-05-07T14:01:36;4.80;;;4.40;;
77248;SDS011;66280;45.124;20.718;2023-05-07T14:11:37;4.23;;;3.93;;
77248;SDS011;66280;45.124;20.718;2023-05-07T14:21:37;4.60;;;4.30;;
77248;SDS011;66280;45.124;20.718;2023-05-07T14:31:38;6.13;;;4.37;;
77248;SDS011;66280;45.124;20.718;2023-05-07T14:41:39;4.43;;;4.03;;
77248;SDS011;66280;45.124;20.718;2023-05-07T14:51:40;36.33;;;5.77;;
77248;SDS011;66280;45.124;20.718;2023-05-07T15:01:40;5.20;;;4.40;;
77248;SDS011;66280;45.124;20.718;2023-05-07T15:11:41;7.90;;;3.77;;
77248;SDS011;66280;45.124;20.718;2023-05-07T15:21:42;4.93;;;3.90;;
77248;SDS011;66280;45.124;20.718;2023-05-07T15:31:42;22.23;;;5.90;;
77248;SDS011;66280;45.124;20.718;2023-05-07T15:41:43;10.63;;;3.70;;
77248;SDS011;66280;45.124;20.718;2023-05-07T15:51:44;4.10;;;3.70;;
77248;SDS011;66280;45.124;20.718;2023-05-07T16:01:45;4.13;;;3.73;;
77248;SDS011;66280;45.124;20.718;2023-05-07T16:11:45;4.10;;;3.30;;
77248;SDS011;66280;45.124;20.718;2023-05-07T16:21:46;4.00;;;3.70;;
77248;SDS011;66280;45.124;20.718;2023-05-07T16:31:47;3.70;;;3.40;;
77248;SDS011;66280;45.124;20.718;2023-05-07T16:41:47;4.03;;;3.73;;
77248;SDS011;66280;45.124;20.718;2023-05-07T16:51:48;4.83;;;4.30;;
77248;SDS011;66280;45.124;20.718;2023-05-07T17:01:49;3.57;;;3.27;;
77248;SDS011;66280;45.124;20.718;2023-05-07T17:11:49;5.60;;;3.63;;
77248;SDS011;66280;45.124;20.718;2023-05-07T17:21:50;8.73;;;4.07;;
77248;SDS011;66280;45.124;20.718;2023-05-07T17:31:51;6.33;;;5.20;;
77248;SDS011;66280;45.124;20.718;2023-05-07T17:41:52;12.07;;;6.10;;
77248;SDS011;66280;45.124;20.718;2023-05-07T17:51:52;6.03;;;3.33;;
77248;SDS011;66280;45.124;20.718;2023-05-07T18:01:53;4.00;;;3.60;;
77248;SDS011;66280;45.124;20.718;2023-05-07T18:11:54;6.17;;;4.30;;
77248;SDS011;66280;45.124;20.718;2023-05-07T18:21:54;22.83;;;10.30;;
77248;SDS011;66280;45.124;20.718;2023-05-07T18:31:55;34.63;;;18.40;;
77248;SDS011;66280;45.124;20.718;2023-05-07T18:41:56;11.80;;;7.77;;
77248;SDS011;66280;45.124;20.718;2023-05-07T18:51:56;13.77;;;8.30;;
77248;SDS011;66280;45.124;20.718;2023-05-07T19:01:57;8.67;;;6.90;;
77248;SDS011;66280;45.124;20.718;2023-05-07T19:11:58;16.07;;;7.83;;
77248;SDS011;66280;45.124;20.718;2023-05-07T19:21:58;15.23;;;9.43;;
77248;SDS011;66280;45.124;20.718;2023-05-07T19:31:59;15.37;;;8.53;;
77248;SDS011;66280;45.124;20.718;2023-05-07T19:42:00;8.67;;;5.97;;
77248;SDS011;66280;45.124;20.718;2023-05-07T19:52:01;6.67;;;5.93;;
77248;SDS011;66280;45.124;20.718;2023-05-07T20:02:02;10.00;;;7.17;;
77248;SDS011;66280;45.124;20.718;2023-05-07T20:12:03;7.27;;;6.17;;
77248;SDS011;66280;45.124;20.718;2023-05-07T20:22:04;7.72;;;6.13;;
77248;SDS011;66280;45.124;20.718;2023-05-07T20:32:04;9.97;;;6.73;;
77248;SDS011;66280;45.124;20.718;2023-05-07T20:42:05;11.67;;;6.10;;
77248;SDS011;66280;45.124;20.718;2023-05-07T20:52:06;6.70;;;6.00;;
77248;SDS011;66280;45.124;20.718;2023-05-07T21:02:07;6.13;;;5.53;;
77248;SDS011;66280;45.124;20.718;2023-05-07T21:12:09;8.33;;;6.70;;
77248;SDS011;66280;45.124;20.718;2023-05-07T21:22:10;8.43;;;6.43;;
77248;SDS011;66280;45.124;20.718;2023-05-07T21:32:10;8.23;;;6.90;;
77248;SDS011;66280;45.124;20.718;2023-05-07T21:42:11;8.27;;;5.95;;
77248;SDS011;66280;45.124;20.718;2023-05-07T21:52:12;9.10;;;6.35;;
77248;SDS011;66280;45.124;20.718;2023-05-07T22:02:13;8.67;;;6.47;;
77248;SDS011;66280;45.124;20.718;2023-05-07T22:12:14;7.90;;;6.20;;
77248;SDS011;66280;45.124;20.718;2023-05-07T22:22:14;7.97;;;6.28;;
77248;SDS011;66280;45.124;20.718;2023-05-07T22:32:15;8.37;;;6.70;;
77248;SDS011;66280;45.124;20.718;2023-05-07T22:42:15;6.70;;;5.80;;
77248;SDS011;66280;45.124;20.718;2023-05-07T22:52:16;9.73;;;7.10;;
77248;SDS011;66280;45.124;20.718;2023-05-07T23:02:17;8.10;;;6.03;;
77248;SDS011;66280;45.124;20.718;2023-05-07T23:12:17;8.23;;;6.33;;
77248;SDS011;66280;45.124;20.718;2023-05-07T23:22:18;7.77;;;5.30;;
77248;SDS011;66280;45.124;20.718;2023-05-07T23:32:19;7.20;;;6.50;;
77248;SDS011;66280;45.124;20.718;2023-05-07T23:42:19;6.47;;;5.83;;
77248;SDS011;66280;45.124;20.718;2023-05-07T23:52:20;7.73;;;6.30;;
